sensor_id;sensor_type;location;lat;lon;timestamp;P1;durP1;ratioP1;P2;durP2;ratioP2
19535;SDS011;9913;51.168;4.124;2023-10-09T00:00:13;14.52;;;8.32;;
19535;SDS011;9913;51.168;4.124;2023-10-09T00:02:56;12.27;;;7.88;;
19535;SDS011;9913;51.168;4.124;2023-10-09T00:05:28;10.57;;;6.97;;
19535;SDS011;9913;51.168;4.124;2023-10-09T00:08:06;12.63;;;8.13;;
19535;SDS011;9913;51.168;4.124;2023-10-09T00:10:38;11.90;;;7.75;;
19535;SDS011;9913;51.168;4.124;2023-10-09T00:13:17;12.70;;;8.45;;
19535;SDS011;9913;51.168;4.124;2023-10-09T00:15:45;12.70;;;8.18;;
19535;SDS011;9913;51.168;4.124;2023-10-09T00:18:20;12.43;;;7.80;;
19535;SDS011;9913;51.168;4.124;2023-10-09T00:20:56;11.98;;;7.20;;
19535;SDS011;9913;51.168;4.124;2023-10-09T00:23:38;14.25;;;7.63;;
19535;SDS011;9913;51.168;4.124;2023-10-09T00:26:07;12.40;;;7.85;;
19535;SDS011;9913;51.168;4.124;2023-10-09T00:28:48;12.75;;;8.00;;
19535;SDS011;9913;51.168;4.124;2023-10-09T00:31:18;14.68;;;8.35;;
19535;SDS011;9913;51.168;4.124;2023-10-09T00:33:56;12.65;;;8.25;;
19535;SDS011;9913;51.168;4.124;2023-10-09T00:36:35;13.95;;;8.68;;
19535;SDS011;9913;51.168;4.124;2023-10-09T00:39:17;13.43;;;8.38;;
19535;SDS011;9913;51.168;4.124;2023-10-09T00:42:00;12.70;;;8.98;;
19535;SDS011;9913;51.168;4.124;2023-10-09T00:44:31;14.10;;;8.88;;
19535;SDS011;9913;51.168;4.124;2023-10-09T00:47:06;12.80;;;8.07;;
19535;SDS011;9913;51.168;4.124;2023-10-09T00:49:49;13.98;;;8.15;;
19535;SDS011;9913;51.168;4.124;2023-10-09T00:52:21;14.88;;;8.20;;
19535;SDS011;9913;51.168;4.124;2023-10-09T00:54:58;12.93;;;8.50;;
19535;SDS011;9913;51.168;4.124;2023-10-09T00:57:35;12.23;;;8.43;;
19535;SDS011;9913;51.168;4.124;2023-10-09T01:00:09;14.23;;;8.73;;
19535;SDS011;9913;51.168;4.124;2023-10-09T01:02:56;14.02;;;9.48;;
19535;SDS011;9913;51.168;4.124;2023-10-09T01:05:37;19.88;;;9.60;;
19535;SDS011;9913;51.168;4.124;2023-10-09T01:08:12;13.77;;;8.30;;
19535;SDS011;9913;51.168;4.124;2023-10-09T01:10:52;13.73;;;8.73;;
19535;SDS011;9913;51.168;4.124;2023-10-09T01:13:23;13.80;;;8.70;;
19535;SDS011;9913;51.168;4.124;2023-10-09T01:16:07;17.17;;;9.40;;
19535;SDS011;9913;51.168;4.124;2023-10-09T01:18:42;18.75;;;9.98;;
19535;SDS011;9913;51.168;4.124;2023-10-09T01:21:11;16.80;;;9.52;;
19535;SDS011;9913;51.168;4.124;2023-10-09T01:23:43;13.98;;;9.63;;
19535;SDS011;9913;51.168;4.124;2023-10-09T01:26:37;11.75;;;8.23;;
19535;SDS011;9913;51.168;4.124;2023-10-09T01:29:13;13.00;;;9.25;;
19535;SDS011;9913;51.168;4.124;2023-10-09T01:31:44;14.90;;;10.00;;
19535;SDS011;9913;51.168;4.124;2023-10-09T01:34:18;14.25;;;9.55;;
19535;SDS011;9913;51.168;4.124;2023-10-09T01:36:51;13.65;;;8.82;;
19535;SDS011;9913;51.168;4.124;2023-10-09T01:39:23;13.77;;;9.10;;
19535;SDS011;9913;51.168;4.124;2023-10-09T01:41:54;12.25;;;9.60;;
19535;SDS011;9913;51.168;4.124;2023-10-09T01:44:26;13.88;;;8.82;;
19535;SDS011;9913;51.168;4.124;2023-10-09T01:47:01;15.95;;;9.38;;
19535;SDS011;9913;51.168;4.124;2023-10-09T01:49:34;12.38;;;9.73;;
19535;SDS011;9913;51.168;4.124;2023-10-09T01:52:03;14.55;;;9.77;;
19535;SDS011;9913;51.168;4.124;2023-10-09T01:54:37;12.57;;;9.10;;
19535;SDS011;9913;51.168;4.124;2023-10-09T01:57:08;15.23;;;9.27;;
19535;SDS011;9913;51.168;4.124;2023-10-09T01:59:40;12.35;;;8.85;;
19535;SDS011;9913;51.168;4.124;2023-10-09T02:02:12;14.88;;;9.88;;
19535;SDS011;9913;51.168;4.124;2023-10-09T02:04:55;12.90;;;10.07;;
19535;SDS011;9913;51.168;4.124;2023-10-09T02:07:34;15.00;;;9.13;;
19535;SDS011;9913;51.168;4.124;2023-10-09T02:10:10;15.82;;;9.13;;
19535;SDS011;9913;51.168;4.124;2023-10-09T02:12:48;14.93;;;10.40;;
19535;SDS011;9913;51.168;4.124;2023-10-09T02:15:20;14.32;;;9.93;;
19535;SDS011;9913;51.168;4.124;2023-10-09T02:18:08;14.38;;;9.63;;
19535;SDS011;9913;51.168;4.124;2023-10-09T02:20:46;15.75;;;9.70;;
19535;SDS011;9913;51.168;4.124;2023-10-09T02:23:22;13.98;;;9.68;;
19535;SDS011;9913;51.168;4.124;2023-10-09T02:25:58;16.20;;;9.00;;
19535;SDS011;9913;51.168;4.124;2023-10-09T02:28:29;14.10;;;9.13;;
19535;SDS011;9913;51.168;4.124;2023-10-09T02:30:59;14.80;;;9.07;;
19535;SDS011;9913;51.168;4.124;2023-10-09T02:33:29;13.82;;;9.07;;
19535;SDS011;9913;51.168;4.124;2023-10-09T02:35:59;14.38;;;9.48;;
19535;SDS011;9913;51.168;4.124;2023-10-09T02:38:32;12.15;;;9.27;;
19535;SDS011;9913;51.168;4.124;2023-10-09T02:41:10;12.88;;;9.35;;
19535;SDS011;9913;51.168;4.124;2023-10-09T02:43:58;15.35;;;9.88;;
19535;SDS011;9913;51.168;4.124;2023-10-09T02:46:31;14.23;;;9.65;;
19535;SDS011;9913;51.168;4.124;2023-10-09T02:49:01;13.88;;;9.88;;
19535;SDS011;9913;51.168;4.124;2023-10-09T02:51:35;14.05;;;9.27;;
19535;SDS011;9913;51.168;4.124;2023-10-09T02:54:08;15.38;;;9.98;;
19535;SDS011;9913;51.168;4.124;2023-10-09T02:56:54;14.43;;;9.43;;
19535;SDS011;9913;51.168;4.124;2023-10-09T02:59:31;17.00;;;10.27;;
19535;SDS011;9913;51.168;4.124;2023-10-09T03:02:00;14.05;;;9.55;;
19535;SDS011;9913;51.168;4.124;2023-10-09T03:04:28;15.40;;;9.30;;
19535;SDS011;9913;51.168;4.124;2023-10-09T03:06:57;14.02;;;9.07;;
19535;SDS011;9913;51.168;4.124;2023-10-09T03:09:26;13.82;;;10.07;;
19535;SDS011;9913;51.168;4.124;2023-10-09T03:11:57;15.68;;;9.95;;
19535;SDS011;9913;51.168;4.124;2023-10-09T03:14:30;13.85;;;11.10;;
19535;SDS011;9913;51.168;4.124;2023-10-09T03:17:02;16.90;;;10.05;;
19535;SDS011;9913;51.168;4.124;2023-10-09T03:19:31;14.48;;;9.75;;
19535;SDS011;9913;51.168;4.124;2023-10-09T03:22:04;14.57;;;10.35;;
19535;SDS011;9913;51.168;4.124;2023-10-09T03:24:37;14.48;;;10.25;;
19535;SDS011;9913;51.168;4.124;2023-10-09T03:27:07;16.60;;;11.43;;
19535;SDS011;9913;51.168;4.124;2023-10-09T03:29:35;13.80;;;11.05;;
19535;SDS011;9913;51.168;4.124;2023-10-09T03:32:04;16.25;;;11.50;;
19535;SDS011;9913;51.168;4.124;2023-10-09T03:34:33;16.35;;;11.00;;
19535;SDS011;9913;51.168;4.124;2023-10-09T03:37:01;15.80;;;10.40;;
19535;SDS011;9913;51.168;4.124;2023-10-09T03:39:32;15.82;;;10.18;;
19535;SDS011;9913;51.168;4.124;2023-10-09T03:42:08;17.98;;;11.40;;
19535;SDS011;9913;51.168;4.124;2023-10-09T03:44:46;15.57;;;10.77;;
19535;SDS011;9913;51.168;4.124;2023-10-09T03:47:19;18.20;;;10.10;;
19535;SDS011;9913;51.168;4.124;2023-10-09T03:49:49;15.43;;;10.52;;
19535;SDS011;9913;51.168;4.124;2023-10-09T03:52:20;15.10;;;10.95;;
19535;SDS011;9913;51.168;4.124;2023-10-09T03:54:52;16.95;;;11.40;;
19535;SDS011;9913;51.168;4.124;2023-10-09T03:57:23;16.70;;;12.07;;
19535;SDS011;9913;51.168;4.124;2023-10-09T03:59:51;16.55;;;12.43;;
19535;SDS011;9913;51.168;4.124;2023-10-09T04:02:22;18.08;;;12.13;;
19535;SDS011;9913;51.168;4.124;2023-10-09T04:04:51;19.17;;;13.70;;
19535;SDS011;9913;51.168;4.124;2023-10-09T04:07:19;18.45;;;11.93;;
19535;SDS011;9913;51.168;4.124;2023-10-09T04:09:48;20.67;;;13.38;;
19535;SDS011;9913;51.168;4.124;2023-10-09T04:12:30;18.75;;;13.77;;
19535;SDS011;9913;51.168;4.124;2023-10-09T04:15:00;20.85;;;13.85;;
19535;SDS011;9913;51.168;4.124;2023-10-09T04:17:32;19.75;;;13.60;;
19535;SDS011;9913;51.168;4.124;2023-10-09T04:20:02;19.45;;;14.23;;
19535;SDS011;9913;51.168;4.124;2023-10-09T04:22:57;21.42;;;13.52;;
19535;SDS011;9913;51.168;4.124;2023-10-09T04:25:32;21.02;;;14.65;;
19535;SDS011;9913;51.168;4.124;2023-10-09T04:28:11;18.80;;;13.60;;
19535;SDS011;9913;51.168;4.124;2023-10-09T04:30:46;21.38;;;14.05;;
19535;SDS011;9913;51.168;4.124;2023-10-09T04:33:20;22.23;;;14.80;;
19535;SDS011;9913;51.168;4.124;2023-10-09T04:36:09;20.58;;;14.48;;
19535;SDS011;9913;51.168;4.124;2023-10-09T04:38:49;21.42;;;14.93;;
19535;SDS011;9913;51.168;4.124;2023-10-09T04:41:36;21.88;;;15.43;;
19535;SDS011;9913;51.168;4.124;2023-10-09T04:44:20;24.02;;;15.75;;
19535;SDS011;9913;51.168;4.124;2023-10-09T04:46:56;22.35;;;15.55;;
19535;SDS011;9913;51.168;4.124;2023-10-09T04:49:41;26.52;;;16.73;;
19535;SDS011;9913;51.168;4.124;2023-10-09T04:52:16;25.08;;;16.15;;
19535;SDS011;9913;51.168;4.124;2023-10-09T04:55:17;25.70;;;16.73;;
19535;SDS011;9913;51.168;4.124;2023-10-09T04:57:51;24.80;;;15.25;;
19535;SDS011;9913;51.168;4.124;2023-10-09T05:00:36;22.05;;;15.30;;
19535;SDS011;9913;51.168;4.124;2023-10-09T05:03:38;21.40;;;14.38;;
19535;SDS011;9913;51.168;4.124;2023-10-09T05:06:23;22.95;;;14.35;;
19535;SDS011;9913;51.168;4.124;2023-10-09T05:09:21;24.00;;;15.95;;
19535;SDS011;9913;51.168;4.124;2023-10-09T05:11:50;20.83;;;15.30;;
19535;SDS011;9913;51.168;4.124;2023-10-09T05:14:21;24.50;;;15.38;;
19535;SDS011;9913;51.168;4.124;2023-10-09T05:17:06;23.60;;;15.57;;
19535;SDS011;9913;51.168;4.124;2023-10-09T05:19:43;27.45;;;16.92;;
19535;SDS011;9913;51.168;4.124;2023-10-09T05:22:42;28.08;;;18.38;;
19535;SDS011;9913;51.168;4.124;2023-10-09T05:25:24;28.83;;;19.23;;
19535;SDS011;9913;51.168;4.124;2023-10-09T05:28:22;27.75;;;19.15;;
19535;SDS011;9913;51.168;4.124;2023-10-09T05:30:52;26.98;;;19.30;;
19535;SDS011;9913;51.168;4.124;2023-10-09T05:33:30;25.33;;;17.67;;
19535;SDS011;9913;51.168;4.124;2023-10-09T05:36:01;27.77;;;19.23;;
19535;SDS011;9913;51.168;4.124;2023-10-09T05:38:44;25.90;;;18.38;;
19535;SDS011;9913;51.168;4.124;2023-10-09T05:41:21;29.38;;;19.95;;
19535;SDS011;9913;51.168;4.124;2023-10-09T05:44:14;28.88;;;20.52;;
19535;SDS011;9913;51.168;4.124;2023-10-09T05:47:00;27.85;;;18.70;;
19535;SDS011;9913;51.168;4.124;2023-10-09T05:49:47;29.08;;;19.63;;
19535;SDS011;9913;51.168;4.124;2023-10-09T05:52:42;28.63;;;19.33;;
19535;SDS011;9913;51.168;4.124;2023-10-09T05:55:31;34.35;;;21.90;;
19535;SDS011;9913;51.168;4.124;2023-10-09T05:58:17;33.83;;;21.48;;
19535;SDS011;9913;51.168;4.124;2023-10-09T06:01:03;30.98;;;21.15;;
19535;SDS011;9913;51.168;4.124;2023-10-09T06:04:00;29.27;;;20.92;;
19535;SDS011;9913;51.168;4.124;2023-10-09T06:06:44;32.88;;;21.98;;
19535;SDS011;9913;51.168;4.124;2023-10-09T06:09:14;31.13;;;20.42;;
19535;SDS011;9913;51.168;4.124;2023-10-09T06:12:12;30.35;;;21.13;;
19535;SDS011;9913;51.168;4.124;2023-10-09T06:14:57;30.92;;;21.17;;
19535;SDS011;9913;51.168;4.124;2023-10-09T06:17:45;31.90;;;21.85;;
19535;SDS011;9913;51.168;4.124;2023-10-09T06:20:17;30.77;;;22.17;;
19535;SDS011;9913;51.168;4.124;2023-10-09T06:23:05;28.48;;;21.02;;
19535;SDS011;9913;51.168;4.124;2023-10-09T06:25:43;31.80;;;21.95;;
19535;SDS011;9913;51.168;4.124;2023-10-09T06:28:18;37.20;;;23.70;;
19535;SDS011;9913;51.168;4.124;2023-10-09T06:30:59;26.98;;;20.67;;
19535;SDS011;9913;51.168;4.124;2023-10-09T06:33:49;31.95;;;21.08;;
19535;SDS011;9913;51.168;4.124;2023-10-09T06:36:34;32.35;;;22.48;;
19535;SDS011;9913;51.168;4.124;2023-10-09T06:39:14;31.75;;;22.38;;
19535;SDS011;9913;51.168;4.124;2023-10-09T06:42:00;29.67;;;20.42;;
19535;SDS011;9913;51.168;4.124;2023-10-09T06:44:43;32.05;;;22.02;;
19535;SDS011;9913;51.168;4.124;2023-10-09T06:47:19;28.42;;;20.40;;
19535;SDS011;9913;51.168;4.124;2023-10-09T06:49:51;32.42;;;23.45;;
19535;SDS011;9913;51.168;4.124;2023-10-09T06:52:33;31.95;;;22.20;;
19535;SDS011;9913;51.168;4.124;2023-10-09T06:55:16;28.77;;;20.92;;
19535;SDS011;9913;51.168;4.124;2023-10-09T06:57:59;30.42;;;22.63;;
19535;SDS011;9913;51.168;4.124;2023-10-09T07:00:28;36.28;;;24.77;;
19535;SDS011;9913;51.168;4.124;2023-10-09T07:03:19;33.92;;;23.05;;
19535;SDS011;9913;51.168;4.124;2023-10-09T07:06:05;34.72;;;22.27;;
19535;SDS011;9913;51.168;4.124;2023-10-09T07:08:36;33.78;;;22.38;;
19535;SDS011;9913;51.168;4.124;2023-10-09T07:11:06;34.33;;;23.08;;
19535;SDS011;9913;51.168;4.124;2023-10-09T07:13:48;31.15;;;22.13;;
19535;SDS011;9913;51.168;4.124;2023-10-09T07:16:22;28.92;;;20.27;;
19535;SDS011;9913;51.168;4.124;2023-10-09T07:18:55;34.75;;;23.10;;
19535;SDS011;9913;51.168;4.124;2023-10-09T07:21:36;32.28;;;21.58;;
19535;SDS011;9913;51.168;4.124;2023-10-09T07:24:06;35.22;;;22.15;;
19535;SDS011;9913;51.168;4.124;2023-10-09T07:26:45;28.48;;;20.15;;
19535;SDS011;9913;51.168;4.124;2023-10-09T07:29:19;32.03;;;20.90;;
19535;SDS011;9913;51.168;4.124;2023-10-09T07:31:49;25.25;;;20.23;;
19535;SDS011;9913;51.168;4.124;2023-10-09T07:34:24;29.02;;;20.85;;
19535;SDS011;9913;51.168;4.124;2023-10-09T07:36:58;28.77;;;21.05;;
19535;SDS011;9913;51.168;4.124;2023-10-09T07:39:31;30.15;;;21.38;;
19535;SDS011;9913;51.168;4.124;2023-10-09T07:42:05;29.23;;;20.38;;
19535;SDS011;9913;51.168;4.124;2023-10-09T07:44:47;28.38;;;19.95;;
19535;SDS011;9913;51.168;4.124;2023-10-09T07:47:20;30.00;;;20.73;;
19535;SDS011;9913;51.168;4.124;2023-10-09T07:50:12;30.20;;;20.92;;
19535;SDS011;9913;51.168;4.124;2023-10-09T07:52:48;31.67;;;21.98;;
19535;SDS011;9913;51.168;4.124;2023-10-09T07:55:16;27.23;;;19.30;;
19535;SDS011;9913;51.168;4.124;2023-10-09T07:57:57;28.38;;;18.02;;
19535;SDS011;9913;51.168;4.124;2023-10-09T08:00:37;34.15;;;20.55;;
19535;SDS011;9913;51.168;4.124;2023-10-09T08:03:33;26.88;;;19.02;;
19535;SDS011;9913;51.168;4.124;2023-10-09T08:06:03;26.23;;;18.92;;
19535;SDS011;9913;51.168;4.124;2023-10-09T08:08:51;28.30;;;19.58;;
19535;SDS011;9913;51.168;4.124;2023-10-09T08:11:34;30.60;;;19.95;;
19535;SDS011;9913;51.168;4.124;2023-10-09T08:14:11;26.30;;;19.85;;
19535;SDS011;9913;51.168;4.124;2023-10-09T08:17:07;25.05;;;19.23;;
19535;SDS011;9913;51.168;4.124;2023-10-09T08:19:42;26.63;;;19.10;;
19535;SDS011;9913;51.168;4.124;2023-10-09T08:22:21;26.33;;;18.55;;
19535;SDS011;9913;51.168;4.124;2023-10-09T08:25:10;25.70;;;18.77;;
19535;SDS011;9913;51.168;4.124;2023-10-09T08:27:54;28.17;;;18.10;;
19535;SDS011;9913;51.168;4.124;2023-10-09T08:30:27;32.67;;;20.00;;
19535;SDS011;9913;51.168;4.124;2023-10-09T08:33:16;23.70;;;17.98;;
19535;SDS011;9913;51.168;4.124;2023-10-09T08:36:10;28.45;;;18.00;;
19535;SDS011;9913;51.168;4.124;2023-10-09T08:38:42;25.90;;;18.80;;
19535;SDS011;9913;51.168;4.124;2023-10-09T08:41:12;26.23;;;18.38;;
19535;SDS011;9913;51.168;4.124;2023-10-09T08:43:50;26.42;;;19.30;;
19535;SDS011;9913;51.168;4.124;2023-10-09T08:46:22;25.80;;;19.05;;
19535;SDS011;9913;51.168;4.124;2023-10-09T08:48:54;27.02;;;19.33;;
19535;SDS011;9913;51.168;4.124;2023-10-09T08:51:23;27.15;;;19.73;;
19535;SDS011;9913;51.168;4.124;2023-10-09T08:53:53;27.08;;;18.40;;
19535;SDS011;9913;51.168;4.124;2023-10-09T08:56:22;25.45;;;18.55;;
19535;SDS011;9913;51.168;4.124;2023-10-09T08:58:51;27.90;;;19.15;;
19535;SDS011;9913;51.168;4.124;2023-10-09T09:01:22;23.90;;;18.08;;
19535;SDS011;9913;51.168;4.124;2023-10-09T09:03:53;27.30;;;19.00;;
19535;SDS011;9913;51.168;4.124;2023-10-09T09:06:23;29.67;;;19.58;;
19535;SDS011;9913;51.168;4.124;2023-10-09T09:08:51;26.85;;;19.08;;
19535;SDS011;9913;51.168;4.124;2023-10-09T09:11:26;25.02;;;18.38;;
19535;SDS011;9913;51.168;4.124;2023-10-09T09:14:02;27.67;;;18.30;;
19535;SDS011;9913;51.168;4.124;2023-10-09T09:16:35;29.20;;;19.92;;
19535;SDS011;9913;51.168;4.124;2023-10-09T09:19:04;28.77;;;19.25;;
19535;SDS011;9913;51.168;4.124;2023-10-09T09:21:48;25.80;;;18.67;;
19535;SDS011;9913;51.168;4.124;2023-10-09T09:24:21;29.45;;;19.50;;
19535;SDS011;9913;51.168;4.124;2023-10-09T09:27:00;23.63;;;17.90;;
19535;SDS011;9913;51.168;4.124;2023-10-09T09:29:45;25.17;;;17.98;;
19535;SDS011;9913;51.168;4.124;2023-10-09T09:32:28;27.08;;;18.25;;
19535;SDS011;9913;51.168;4.124;2023-10-09T09:35:03;30.45;;;18.17;;
19535;SDS011;9913;51.168;4.124;2023-10-09T09:37:51;26.55;;;18.60;;
19535;SDS011;9913;51.168;4.124;2023-10-09T09:40:22;24.33;;;17.80;;
19535;SDS011;9913;51.168;4.124;2023-10-09T09:43:01;24.02;;;17.45;;
19535;SDS011;9913;51.168;4.124;2023-10-09T09:45:34;27.15;;;18.55;;
19535;SDS011;9913;51.168;4.124;2023-10-09T09:48:05;24.30;;;17.33;;
19535;SDS011;9913;51.168;4.124;2023-10-09T09:50:42;24.77;;;16.70;;
19535;SDS011;9913;51.168;4.124;2023-10-09T09:53:11;23.35;;;16.55;;
19535;SDS011;9913;51.168;4.124;2023-10-09T09:55:45;28.20;;;18.73;;
19535;SDS011;9913;51.168;4.124;2023-10-09T09:58:24;25.80;;;16.85;;
19535;SDS011;9913;51.168;4.124;2023-10-09T10:01:00;22.17;;;16.48;;
19535;SDS011;9913;51.168;4.124;2023-10-09T10:03:38;24.00;;;15.10;;
19535;SDS011;9913;51.168;4.124;2023-10-09T10:06:10;25.10;;;15.82;;
19535;SDS011;9913;51.168;4.124;2023-10-09T10:08:41;21.77;;;16.73;;
19535;SDS011;9913;51.168;4.124;2023-10-09T10:11:13;22.60;;;16.63;;
19535;SDS011;9913;51.168;4.124;2023-10-09T10:14:12;23.25;;;15.45;;
19535;SDS011;9913;51.168;4.124;2023-10-09T10:17:02;23.95;;;16.88;;
19535;SDS011;9913;51.168;4.124;2023-10-09T10:22:41;26.15;;;16.67;;
19535;SDS011;9913;51.168;4.124;2023-10-09T10:28:18;22.85;;;15.35;;
19535;SDS011;9913;51.168;4.124;2023-10-09T10:31:02;23.00;;;16.75;;
19535;SDS011;9913;51.168;4.124;2023-10-09T10:36:39;21.40;;;16.40;;
19535;SDS011;9913;51.168;4.124;2023-10-09T10:39:11;26.95;;;16.42;;
19535;SDS011;9913;51.168;4.124;2023-10-09T10:41:54;27.23;;;15.60;;
19535;SDS011;9913;51.168;4.124;2023-10-09T10:44:25;20.60;;;15.60;;
19535;SDS011;9913;51.168;4.124;2023-10-09T10:47:12;23.38;;;15.30;;
19535;SDS011;9913;51.168;4.124;2023-10-09T10:49:52;24.85;;;17.65;;
19535;SDS011;9913;51.168;4.124;2023-10-09T10:52:27;26.40;;;17.67;;
19535;SDS011;9913;51.168;4.124;2023-10-09T10:55:10;25.17;;;18.50;;
19535;SDS011;9913;51.168;4.124;2023-10-09T10:58:15;25.63;;;16.60;;
19535;SDS011;9913;51.168;4.124;2023-10-09T11:00:53;24.58;;;16.98;;
19535;SDS011;9913;51.168;4.124;2023-10-09T11:03:40;21.50;;;16.13;;
19535;SDS011;9913;51.168;4.124;2023-10-09T11:06:26;26.08;;;16.52;;
19535;SDS011;9913;51.168;4.124;2023-10-09T11:09:06;30.08;;;18.00;;
19535;SDS011;9913;51.168;4.124;2023-10-09T11:11:48;25.15;;;17.40;;
19535;SDS011;9913;51.168;4.124;2023-10-09T11:14:22;22.55;;;17.00;;
19535;SDS011;9913;51.168;4.124;2023-10-09T11:16:51;24.05;;;17.23;;
19535;SDS011;9913;51.168;4.124;2023-10-09T11:19:25;25.75;;;18.20;;
19535;SDS011;9913;51.168;4.124;2023-10-09T11:21:59;24.60;;;17.80;;
19535;SDS011;9913;51.168;4.124;2023-10-09T11:24:49;28.15;;;17.65;;
19535;SDS011;9913;51.168;4.124;2023-10-09T11:27:41;28.90;;;18.50;;
19535;SDS011;9913;51.168;4.124;2023-10-09T11:30:18;25.83;;;18.63;;
19535;SDS011;9913;51.168;4.124;2023-10-09T11:33:06;24.45;;;16.13;;
19535;SDS011;9913;51.168;4.124;2023-10-09T11:35:41;28.00;;;16.67;;
19535;SDS011;9913;51.168;4.124;2023-10-09T11:38:23;22.88;;;16.55;;
19535;SDS011;9913;51.168;4.124;2023-10-09T11:40:54;24.80;;;17.52;;
19535;SDS011;9913;51.168;4.124;2023-10-09T11:43:45;27.95;;;18.40;;
19535;SDS011;9913;51.168;4.124;2023-10-09T11:46:21;20.40;;;15.45;;
19535;SDS011;9913;51.168;4.124;2023-10-09T11:49:15;21.77;;;13.65;;
19535;SDS011;9913;51.168;4.124;2023-10-09T11:52:07;21.33;;;13.05;;
19535;SDS011;9913;51.168;4.124;2023-10-09T11:54:54;19.58;;;12.10;;
19535;SDS011;9913;51.168;4.124;2023-10-09T11:57:25;18.80;;;13.45;;
19535;SDS011;9913;51.168;4.124;2023-10-09T11:59:58;21.45;;;12.63;;
19535;SDS011;9913;51.168;4.124;2023-10-09T12:02:30;20.60;;;13.60;;
19535;SDS011;9913;51.168;4.124;2023-10-09T12:04:59;19.50;;;13.07;;
19535;SDS011;9913;51.168;4.124;2023-10-09T12:07:27;23.30;;;12.88;;
19535;SDS011;9913;51.168;4.124;2023-10-09T12:09:56;20.42;;;11.77;;
19535;SDS011;9913;51.168;4.124;2023-10-09T12:12:26;15.95;;;11.25;;
19535;SDS011;9913;51.168;4.124;2023-10-09T12:14:54;19.42;;;13.07;;
19535;SDS011;9913;51.168;4.124;2023-10-09T12:17:24;19.58;;;12.65;;
19535;SDS011;9913;51.168;4.124;2023-10-09T12:19:53;20.27;;;13.27;;
19535;SDS011;9913;51.168;4.124;2023-10-09T12:22:23;19.75;;;12.93;;
19535;SDS011;9913;51.168;4.124;2023-10-09T12:24:54;18.50;;;12.77;;
19535;SDS011;9913;51.168;4.124;2023-10-09T12:27:23;19.52;;;12.13;;
19535;SDS011;9913;51.168;4.124;2023-10-09T12:29:53;18.55;;;11.82;;
19535;SDS011;9913;51.168;4.124;2023-10-09T12:32:23;19.00;;;11.30;;
19535;SDS011;9913;51.168;4.124;2023-10-09T12:34:52;17.48;;;11.95;;
19535;SDS011;9913;51.168;4.124;2023-10-09T12:37:20;19.77;;;11.75;;
19535;SDS011;9913;51.168;4.124;2023-10-09T12:39:51;18.30;;;11.95;;
19535;SDS011;9913;51.168;4.124;2023-10-09T12:42:22;18.00;;;12.23;;
19535;SDS011;9913;51.168;4.124;2023-10-09T12:44:52;15.00;;;10.88;;
19535;SDS011;9913;51.168;4.124;2023-10-09T12:47:24;18.10;;;9.88;;
19535;SDS011;9913;51.168;4.124;2023-10-09T12:49:53;17.13;;;10.75;;
19535;SDS011;9913;51.168;4.124;2023-10-09T12:52:23;17.67;;;10.85;;
19535;SDS011;9913;51.168;4.124;2023-10-09T12:54:56;18.92;;;12.20;;
19535;SDS011;9913;51.168;4.124;2023-10-09T12:57:25;17.75;;;11.77;;
19535;SDS011;9913;51.168;4.124;2023-10-09T12:59:54;18.23;;;12.35;;
19535;SDS011;9913;51.168;4.124;2023-10-09T13:02:23;18.45;;;11.32;;
19535;SDS011;9913;51.168;4.124;2023-10-09T13:04:56;20.08;;;13.20;;
19535;SDS011;9913;51.168;4.124;2023-10-09T13:07:27;19.40;;;12.48;;
19535;SDS011;9913;51.168;4.124;2023-10-09T13:09:55;19.25;;;12.18;;
19535;SDS011;9913;51.168;4.124;2023-10-09T13:12:43;17.80;;;11.82;;
19535;SDS011;9913;51.168;4.124;2023-10-09T13:15:13;16.02;;;10.80;;
19535;SDS011;9913;51.168;4.124;2023-10-09T13:17:41;17.70;;;10.85;;
19535;SDS011;9913;51.168;4.124;2023-10-09T13:20:10;16.38;;;11.82;;
19535;SDS011;9913;51.168;4.124;2023-10-09T13:22:40;15.02;;;10.80;;
19535;SDS011;9913;51.168;4.124;2023-10-09T13:25:09;17.73;;;10.77;;
19535;SDS011;9913;51.168;4.124;2023-10-09T13:28:00;19.40;;;11.50;;
19535;SDS011;9913;51.168;4.124;2023-10-09T13:30:32;17.75;;;11.32;;
19535;SDS011;9913;51.168;4.124;2023-10-09T13:33:15;17.83;;;11.18;;
19535;SDS011;9913;51.168;4.124;2023-10-09T13:35:49;20.10;;;11.68;;
19535;SDS011;9913;51.168;4.124;2023-10-09T13:38:18;16.70;;;11.32;;
19535;SDS011;9913;51.168;4.124;2023-10-09T13:40:46;15.38;;;10.60;;
19535;SDS011;9913;51.168;4.124;2023-10-09T13:43:16;22.77;;;11.77;;
19535;SDS011;9913;51.168;4.124;2023-10-09T13:45:46;18.65;;;11.77;;
19535;SDS011;9913;51.168;4.124;2023-10-09T13:48:17;15.32;;;9.52;;
19535;SDS011;9913;51.168;4.124;2023-10-09T13:50:48;14.52;;;9.07;;
19535;SDS011;9913;51.168;4.124;2023-10-09T13:53:16;16.48;;;9.18;;
19535;SDS011;9913;51.168;4.124;2023-10-09T13:55:45;15.55;;;9.73;;
19535;SDS011;9913;51.168;4.124;2023-10-09T13:58:14;14.70;;;9.00;;
19535;SDS011;9913;51.168;4.124;2023-10-09T14:00:49;18.40;;;9.63;;
19535;SDS011;9913;51.168;4.124;2023-10-09T14:03:20;17.80;;;9.13;;
19535;SDS011;9913;51.168;4.124;2023-10-09T14:05:50;18.88;;;10.48;;
19535;SDS011;9913;51.168;4.124;2023-10-09T14:08:23;15.27;;;8.98;;
19535;SDS011;9913;51.168;4.124;2023-10-09T14:10:53;20.13;;;9.73;;
19535;SDS011;9913;51.168;4.124;2023-10-09T14:13:21;17.85;;;10.15;;
19535;SDS011;9913;51.168;4.124;2023-10-09T14:15:57;22.05;;;10.45;;
19535;SDS011;9913;51.168;4.124;2023-10-09T14:18:28;16.80;;;9.07;;
19535;SDS011;9913;51.168;4.124;2023-10-09T14:21:00;18.50;;;9.55;;
19535;SDS011;9913;51.168;4.124;2023-10-09T14:23:31;15.00;;;9.05;;
19535;SDS011;9913;51.168;4.124;2023-10-09T14:26:02;15.73;;;10.35;;
19535;SDS011;9913;51.168;4.124;2023-10-09T14:28:33;19.67;;;10.75;;
19535;SDS011;9913;51.168;4.124;2023-10-09T14:31:03;19.67;;;10.80;;
19535;SDS011;9913;51.168;4.124;2023-10-09T14:33:38;17.83;;;10.18;;
19535;SDS011;9913;51.168;4.124;2023-10-09T14:36:07;16.13;;;9.57;;
19535;SDS011;9913;51.168;4.124;2023-10-09T14:38:35;17.48;;;10.82;;
19535;SDS011;9913;51.168;4.124;2023-10-09T14:41:06;21.65;;;11.68;;
19535;SDS011;9913;51.168;4.124;2023-10-09T14:43:38;14.43;;;9.18;;
19535;SDS011;9913;51.168;4.124;2023-10-09T14:46:13;19.35;;;11.88;;
19535;SDS011;9913;51.168;4.124;2023-10-09T14:48:43;17.17;;;11.27;;
19535;SDS011;9913;51.168;4.124;2023-10-09T14:51:13;15.80;;;10.30;;
19535;SDS011;9913;51.168;4.124;2023-10-09T14:53:42;15.40;;;10.55;;
19535;SDS011;9913;51.168;4.124;2023-10-09T14:56:11;14.65;;;9.82;;
19535;SDS011;9913;51.168;4.124;2023-10-09T14:58:43;45.47;;;16.23;;
19535;SDS011;9913;51.168;4.124;2023-10-09T15:01:15;18.52;;;9.98;;
19535;SDS011;9913;51.168;4.124;2023-10-09T15:03:46;14.43;;;8.38;;
19535;SDS011;9913;51.168;4.124;2023-10-09T15:06:19;13.13;;;7.95;;
19535;SDS011;9913;51.168;4.124;2023-10-09T15:08:47;11.50;;;7.03;;
19535;SDS011;9913;51.168;4.124;2023-10-09T15:11:16;13.48;;;8.07;;
19535;SDS011;9913;51.168;4.124;2023-10-09T15:13:44;14.52;;;7.32;;
19535;SDS011;9913;51.168;4.124;2023-10-09T15:16:15;14.75;;;7.65;;
19535;SDS011;9913;51.168;4.124;2023-10-09T15:18:43;14.57;;;7.78;;
19535;SDS011;9913;51.168;4.124;2023-10-09T15:21:13;12.40;;;7.13;;
19535;SDS011;9913;51.168;4.124;2023-10-09T15:23:43;12.70;;;6.65;;
19535;SDS011;9913;51.168;4.124;2023-10-09T15:26:11;14.10;;;7.18;;
19535;SDS011;9913;51.168;4.124;2023-10-09T15:28:44;9.77;;;6.38;;
19535;SDS011;9913;51.168;4.124;2023-10-09T15:31:12;12.90;;;6.63;;
19535;SDS011;9913;51.168;4.124;2023-10-09T15:33:44;13.50;;;6.97;;
19535;SDS011;9913;51.168;4.124;2023-10-09T15:36:14;11.88;;;6.68;;
19535;SDS011;9913;51.168;4.124;2023-10-09T15:38:44;11.60;;;6.10;;